createdAt,value
2023-02-12T00:02:18.999Z,37.34
2023-02-12T00:05:05.215Z,37.50
2023-02-12T00:07:51.232Z,37.60
2023-02-12T00:10:41.564Z,37.61
2023-02-12T00:13:31.335Z,37.41
2023-02-12T00:16:20.632Z,37.53
2023-02-12T00:19:06.555Z,37.53
2023-02-12T00:21:52.434Z,37.69
2023-02-12T00:24:38.328Z,37.42
2023-02-12T00:27:24.894Z,37.12
2023-02-12T00:30:11.383Z,37.38
2023-02-12T00:32:57.367Z,37.33
2023-02-12T00:35:43.197Z,37.63
2023-02-12T00:38:29.399Z,37.53
2023-02-12T00:41:15.274Z,37.64
2023-02-12T00:44:01.130Z,37.76
2023-02-12T00:46:47.316Z,37.64
2023-02-12T00:49:35.645Z,37.46
2023-02-12T00:52:21.749Z,37.69
2023-02-12T00:55:09.456Z,37.76
2023-02-12T00:57:55.329Z,37.55
2023-02-12T01:00:41.300Z,38.07
2023-02-12T01:03:27.235Z,37.34
2023-02-12T01:06:13.090Z,37.70
2023-02-12T01:08:58.803Z,37.58
2023-02-12T01:11:44.605Z,37.69
2023-02-12T01:14:30.374Z,37.64
2023-02-12T01:17:16.260Z,38.00
2023-02-12T01:20:05.917Z,37.43
2023-02-12T01:22:52.605Z,37.72
2023-02-12T01:25:38.974Z,37.60
2023-02-12T01:28:24.904Z,37.78
2023-02-12T01:31:17.247Z,37.95
2023-02-12T01:34:03.002Z,38.27
2023-02-12T01:36:49.097Z,37.49
2023-02-12T01:39:35.960Z,37.93
2023-02-12T01:42:22.089Z,37.48
2023-02-12T01:45:14.090Z,37.76
2023-02-12T01:48:00.565Z,37.75
2023-02-12T01:50:48.894Z,37.71
2023-02-12T01:53:37.550Z,37.84
2023-02-12T01:56:24.590Z,37.92
2023-02-12T01:59:10.855Z,37.93
2023-02-12T02:01:56.773Z,37.89
2023-02-12T02:04:54.914Z,38.29
2023-02-12T02:07:42.218Z,38.09
2023-02-12T02:10:30.116Z,37.69
2023-02-12T02:13:34.761Z,38.42
2023-02-12T02:16:26.421Z,38.12
2023-02-12T02:19:30.869Z,37.92
2023-02-12T02:22:28.477Z,38.04
2023-02-12T02:25:51.646Z,38.55
2023-02-12T02:29:02.275Z,38.26
2023-02-12T02:31:54.564Z,38.49
2023-02-12T02:35:07.629Z,38.46
2023-02-12T02:38:15.000Z,38.53
2023-02-12T02:41:07.007Z,38.24
2023-02-12T02:43:53.641Z,38.65
2023-02-12T02:46:46.360Z,38.27
2023-02-12T02:49:33.754Z,38.21
2023-02-12T02:52:25.167Z,38.84
2023-02-12T02:55:13.465Z,38.41
2023-02-12T02:58:03.605Z,38.49
2023-02-12T03:00:59.380Z,38.99
2023-02-12T03:03:51.111Z,39.07
2023-02-12T03:06:57.832Z,38.73
2023-02-12T03:09:50.340Z,38.62
2023-02-12T03:12:47.581Z,38.93
2023-02-12T03:15:58.625Z,38.66
2023-02-12T03:19:06.643Z,38.62
2023-02-12T03:21:58.669Z,38.60
2023-02-12T03:24:48.824Z,38.63
2023-02-12T03:27:38.816Z,38.94
2023-02-12T03:30:40.460Z,38.65
2023-02-12T03:33:38.073Z,38.67
2023-02-12T03:36:53.180Z,38.61
2023-02-12T03:39:43.828Z,38.69
2023-02-12T03:42:38.645Z,38.65
2023-02-12T03:45:55.200Z,38.53
2023-02-12T03:48:56.516Z,39.01
2023-02-12T03:51:45.221Z,38.82
2023-02-12T03:54:31.015Z,39.07
2023-02-12T03:57:20.490Z,39.13
2023-02-12T04:00:11.981Z,39.36
2023-02-12T04:03:01.028Z,39.48
2023-02-12T04:05:46.940Z,39.11
2023-02-12T04:08:33.241Z,39.02
2023-02-12T04:11:45.187Z,39.04
2023-02-12T04:14:46.979Z,39.56
2023-02-12T04:17:47.364Z,39.13
2023-02-12T04:20:54.298Z,39.01
2023-02-12T04:23:48.952Z,39.14
2023-02-12T04:26:40.068Z,39.41
2023-02-12T04:29:44.459Z,39.14
2023-02-12T04:32:35.342Z,39.13
2023-02-12T04:35:35.941Z,39.61
2023-02-12T04:38:25.540Z,39.46
2023-02-12T04:41:11.491Z,39.64
2023-02-12T04:43:57.213Z,39.60
2023-02-12T04:46:42.988Z,39.38
2023-02-12T04:49:28.912Z,39.41
2023-02-12T04:52:14.591Z,39.83
2023-02-12T04:55:00.520Z,39.54
2023-02-12T04:57:46.345Z,39.43
2023-02-12T05:00:32.830Z,39.45
2023-02-12T05:03:18.412Z,39.53
2023-02-12T05:06:06.017Z,39.79
2023-02-12T05:08:55.280Z,39.68
2023-02-12T05:11:41.367Z,39.77
2023-02-12T05:14:27.336Z,39.50
2023-02-12T05:17:13.217Z,39.42
2023-02-12T05:19:59.153Z,39.53
2023-02-12T05:22:44.963Z,40.19
2023-02-12T05:25:32.094Z,39.94
2023-02-12T05:28:18.235Z,40.03
2023-02-12T05:31:06.506Z,40.14
2023-02-12T05:33:52.415Z,40.13
2023-02-12T05:36:38.329Z,40.01
2023-02-12T05:39:24.135Z,39.92
2023-02-12T05:42:10.002Z,39.98
2023-02-12T05:44:55.863Z,40.19
2023-02-12T05:47:41.615Z,40.39
2023-02-12T05:50:27.522Z,40.08
2023-02-12T05:53:18.861Z,40.35
2023-02-12T05:56:19.462Z,40.55
2023-02-12T05:59:14.189Z,40.28
2023-02-12T06:02:00.171Z,40.12
2023-02-12T06:04:48.526Z,40.50
2023-02-12T06:07:34.497Z,40.49
2023-02-12T06:10:20.463Z,40.25
2023-02-12T06:13:06.714Z,40.27
2023-02-12T06:15:52.549Z,40.43
2023-02-12T06:18:38.362Z,40.20
2023-02-12T06:21:27.838Z,40.48
2023-02-12T06:24:15.160Z,40.80
2023-02-12T06:27:01.048Z,40.16
2023-02-12T06:29:46.908Z,40.82
2023-02-12T06:32:32.620Z,40.76
2023-02-12T06:35:18.322Z,40.78
2023-02-12T06:38:04.879Z,40.58
2023-02-12T06:40:50.886Z,40.41
2023-02-12T06:43:37.233Z,40.73
2023-02-12T06:46:23.203Z,40.38
2023-02-12T06:49:12.246Z,41.45
2023-02-12T06:51:58.003Z,40.68
2023-02-12T06:54:43.944Z,41.18
2023-02-12T06:57:30.146Z,40.54
2023-02-12T07:00:16.563Z,40.95
2023-02-12T07:03:02.702Z,40.90
2023-02-12T07:05:48.424Z,40.70
2023-02-12T07:08:34.319Z,40.98
2023-02-12T07:11:24.200Z,41.06
2023-02-12T07:14:19.200Z,41.14
2023-02-12T07:17:05.603Z,40.90
2023-02-12T07:19:51.294Z,40.93
2023-02-12T07:22:37.421Z,41.00
2023-02-12T07:25:23.423Z,41.81
2023-02-12T07:28:09.385Z,41.50
2023-02-12T07:30:55.198Z,40.80
2023-02-12T07:33:41.516Z,41.41
2023-02-12T07:36:30.868Z,41.40
2023-02-12T07:39:16.993Z,41.74
2023-02-12T07:42:02.797Z,41.59
2023-02-12T07:44:48.890Z,41.67
2023-02-12T07:47:38.548Z,41.57
2023-02-12T07:50:24.467Z,41.37
2023-02-12T07:53:10.193Z,41.54
2023-02-12T07:55:56.482Z,41.56
2023-02-12T07:58:45.089Z,41.86
2023-02-12T08:01:39.100Z,41.66
2023-02-12T08:04:25.718Z,41.77
2023-02-12T08:07:11.825Z,41.54
2023-02-12T08:09:57.799Z,41.64
2023-02-12T08:12:43.760Z,41.77
2023-02-12T08:15:29.584Z,41.68
2023-02-12T08:18:15.267Z,41.71
2023-02-12T08:21:04.917Z,41.81
2023-02-12T08:23:52.034Z,41.59
2023-02-12T08:26:39.184Z,41.68
2023-02-12T08:29:30.411Z,42.03
2023-02-12T08:32:17.253Z,42.47
2023-02-12T08:35:03.255Z,42.13
2023-02-12T08:37:49.030Z,41.93
2023-02-12T08:40:35.035Z,42.06
2023-02-12T08:43:20.839Z,41.71
2023-02-12T08:46:35.060Z,43.42
2023-02-12T08:49:23.400Z,41.95
2023-02-12T08:52:09.330Z,42.13
2023-02-12T08:54:55.045Z,42.50
2023-02-12T08:57:42.454Z,42.09
2023-02-12T09:00:28.177Z,42.55
2023-02-12T09:03:13.873Z,42.19
2023-02-12T09:06:03.434Z,42.45
2023-02-12T09:08:49.618Z,42.35
2023-02-12T09:11:35.776Z,42.66
2023-02-12T09:14:25.320Z,42.53
2023-02-12T09:17:11.345Z,43.39
2023-02-12T09:19:57.669Z,43.28
2023-02-12T09:22:43.899Z,43.49
2023-02-12T09:25:29.859Z,43.73
2023-02-12T09:28:15.663Z,43.23
2023-02-12T09:31:08.745Z,43.71
2023-02-12T09:33:57.645Z,44.10
2023-02-12T09:36:43.552Z,44.23
2023-02-12T09:39:30.862Z,43.75
2023-02-12T09:42:45.443Z,45.48
2023-02-12T09:45:35.718Z,43.75
2023-02-12T09:48:27.818Z,44.37
2023-02-12T09:51:14.140Z,44.05
2023-02-12T09:54:18.739Z,44.15
2023-02-12T09:57:12.218Z,44.95
2023-02-12T10:00:24.903Z,44.87
2023-02-12T10:03:16.818Z,44.33
2023-02-12T10:06:08.514Z,44.85
2023-02-12T10:09:00.555Z,45.02
2023-02-12T10:12:22.737Z,45.05
2023-02-12T10:15:33.483Z,44.81
2023-02-12T10:18:28.722Z,44.62
2023-02-12T10:21:23.519Z,44.98
2023-02-12T10:24:44.381Z,45.05
2023-02-12T10:27:48.701Z,45.03
2023-02-12T10:30:52.604Z,45.00
2023-02-12T10:33:42.810Z,45.30
2023-02-12T10:36:45.031Z,45.12
2023-02-12T10:39:43.873Z,45.21
2023-02-12T10:42:36.402Z,45.06
2023-02-12T10:45:27.053Z,45.11
2023-02-12T10:48:35.550Z,46.24
2023-02-12T10:51:38.353Z,45.21
2023-02-12T10:54:33.342Z,45.93
2023-02-12T10:57:22.564Z,45.19
2023-02-12T11:00:35.780Z,45.18
2023-02-12T11:03:22.254Z,45.59
2023-02-12T11:06:29.515Z,45.36
2023-02-12T11:09:28.460Z,45.29
2023-02-12T11:12:26.749Z,44.76
2023-02-12T11:15:20.185Z,45.41
2023-02-12T11:18:08.574Z,45.00
2023-02-12T11:20:59.106Z,45.23
2023-02-12T11:23:46.526Z,45.07
2023-02-12T11:26:33.634Z,45.46
2023-02-12T11:29:24.240Z,44.89
2023-02-12T11:32:18.885Z,44.92
2023-02-12T11:35:25.091Z,45.26
2023-02-12T11:38:24.550Z,45.01
2023-02-12T11:41:36.336Z,45.15
2023-02-12T11:44:34.925Z,44.66
2023-02-12T11:47:29.228Z,45.40
2023-02-12T11:50:26.660Z,44.83
2023-02-12T11:53:22.341Z,46.21
2023-02-12T11:56:10.852Z,45.44
2023-02-12T11:59:11.797Z,45.11
2023-02-12T12:02:02.301Z,45.49
2023-02-12T12:04:50.356Z,45.24
2023-02-12T12:07:37.206Z,45.31
2023-02-12T12:10:34.611Z,45.06
2023-02-12T12:13:26.143Z,45.44
2023-02-12T12:16:38.376Z,45.17
2023-02-12T12:19:47.329Z,45.43
2023-02-12T12:22:39.868Z,45.41
2023-02-12T12:25:46.477Z,45.23
2023-02-12T12:28:45.941Z,45.14
2023-02-12T12:31:41.067Z,45.65
2023-02-12T12:34:28.075Z,45.11
2023-02-12T12:37:29.445Z,45.55
2023-02-12T12:40:30.452Z,45.27
2023-02-12T12:43:55.129Z,45.55
2023-02-12T12:46:48.099Z,45.19
2023-02-12T12:49:49.651Z,45.29
2023-02-12T12:52:44.943Z,45.56
2023-02-12T12:56:07.834Z,45.61
2023-02-12T12:59:06.013Z,45.28
2023-02-12T13:01:54.740Z,45.75
2023-02-12T13:04:56.939Z,45.53
2023-02-12T13:08:18.422Z,45.92
2023-02-12T13:11:23.357Z,46.11
2023-02-12T13:14:40.394Z,46.03
2023-02-12T13:17:32.141Z,46.37
2023-02-12T13:20:34.959Z,45.92
2023-02-12T13:23:58.466Z,45.81
2023-02-12T13:26:47.471Z,46.08
2023-02-12T13:29:37.455Z,45.97
2023-02-12T13:32:29.861Z,45.71
2023-02-12T13:35:26.103Z,46.52
2023-02-12T13:38:19.409Z,46.12
2023-02-12T13:41:07.807Z,45.96
2023-02-12T13:44:32.634Z,46.42
2023-02-12T13:47:44.554Z,45.98
2023-02-12T13:50:36.566Z,46.50
2023-02-12T13:53:37.662Z,46.55
2023-02-12T13:56:34.675Z,46.57
2023-02-12T13:59:35.637Z,46.56
2023-02-12T14:02:33.937Z,45.88
2023-02-12T14:05:30.990Z,46.79
2023-02-12T14:08:36.268Z,46.52
2023-02-12T14:11:24.702Z,46.29
2023-02-12T14:14:10.827Z,46.00
2023-02-12T14:16:57.366Z,46.26
2023-02-12T14:19:55.435Z,46.63
2023-02-12T14:22:44.168Z,46.08
2023-02-12T14:25:37.309Z,46.03
2023-02-12T14:28:44.676Z,46.10
2023-02-12T14:31:33.745Z,46.71
2023-02-12T14:34:22.644Z,46.29
2023-02-12T14:37:12.551Z,46.67
2023-02-12T14:40:34.077Z,46.83
2023-02-12T14:43:54.877Z,46.49
2023-02-12T14:47:13.156Z,47.17
2023-02-12T14:50:08.934Z,46.88
2023-02-12T14:52:59.835Z,46.48
2023-02-12T14:55:46.975Z,46.57
2023-02-12T14:58:33.213Z,46.29
2023-02-12T15:01:31.105Z,46.57
2023-02-12T15:04:28.477Z,46.72
2023-02-12T15:07:17.708Z,46.82
2023-02-12T15:10:10.717Z,46.95
2023-02-12T15:13:30.199Z,46.78
2023-02-12T15:16:22.881Z,46.32
2023-02-12T15:19:27.049Z,47.07
2023-02-12T15:22:18.207Z,46.47
2023-02-12T15:25:24.649Z,46.40
2023-02-12T15:28:20.096Z,46.84
2023-02-12T15:31:10.642Z,46.50
2023-02-12T15:33:58.739Z,46.77
2023-02-12T15:36:45.858Z,47.01
2023-02-12T15:39:43.762Z,46.54
2023-02-12T15:42:40.579Z,46.99
2023-02-12T15:45:28.810Z,46.53
2023-02-12T15:48:19.560Z,46.97
2023-02-12T15:51:10.189Z,47.38
2023-02-12T15:53:57.485Z,46.84
2023-02-12T15:56:43.443Z,46.87
2023-02-12T15:59:29.474Z,46.85
2023-02-12T16:02:22.038Z,46.58
2023-02-12T16:05:08.130Z,46.80
2023-02-12T16:07:54.506Z,46.65
2023-02-12T16:10:44.064Z,47.17
2023-02-12T16:13:33.574Z,46.89
2023-02-12T16:16:22.705Z,46.82
2023-02-12T16:19:20.687Z,46.73
2023-02-12T16:22:15.327Z,47.01
2023-02-12T16:25:01.732Z,47.12
2023-02-12T16:28:18.456Z,46.99
2023-02-12T16:31:14.307Z,47.18
2023-02-12T16:34:01.094Z,46.79
2023-02-12T16:36:47.275Z,46.49
2023-02-12T16:39:55.562Z,46.65
2023-02-12T16:42:47.676Z,47.32
2023-02-12T16:45:35.680Z,46.72
2023-02-12T16:48:25.264Z,47.10
2023-02-12T16:51:28.364Z,46.83
2023-02-12T16:54:27.902Z,46.85
2023-02-12T16:57:13.784Z,46.68
2023-02-12T16:59:59.628Z,46.80
2023-02-12T17:02:47.154Z,46.75
2023-02-12T17:05:33.059Z,46.65
2023-02-12T17:08:21.533Z,46.83
2023-02-12T17:11:09.844Z,46.72
2023-02-12T17:13:57.882Z,46.93
2023-02-12T17:16:44.722Z,46.65
2023-02-12T17:19:30.597Z,46.73
2023-02-12T17:22:25.026Z,46.82
2023-02-12T17:25:12.246Z,46.74
2023-02-12T17:27:58.740Z,46.81
2023-02-12T17:30:44.950Z,46.83
2023-02-12T17:33:30.911Z,47.66
2023-02-12T17:36:16.734Z,47.29
2023-02-12T17:39:05.020Z,47.21
2023-02-12T17:41:51.860Z,47.35
2023-02-12T17:44:37.685Z,46.71
2023-02-12T17:47:23.818Z,47.25
2023-02-12T17:50:14.775Z,47.13
2023-02-12T17:53:00.660Z,47.27
2023-02-12T17:55:46.625Z,47.20
2023-02-12T17:58:32.506Z,47.42
2023-02-12T18:01:21.001Z,47.45
2023-02-12T18:04:07.160Z,47.47
2023-02-12T18:06:53.193Z,47.15
2023-02-12T18:09:39.649Z,46.87
2023-02-12T18:12:25.751Z,46.94
2023-02-12T18:15:11.564Z,47.21
2023-02-12T18:17:57.502Z,47.43
2023-02-12T18:20:44.143Z,47.42
2023-02-12T18:23:30.159Z,47.11
2023-02-12T18:26:18.145Z,47.68
2023-02-12T18:29:04.554Z,48.10
2023-02-12T18:31:51.522Z,47.39
2023-02-12T18:34:37.456Z,47.58
2023-02-12T18:37:23.662Z,47.21
2023-02-12T18:40:10.758Z,47.32
2023-02-12T18:42:56.983Z,47.40
2023-02-12T18:45:43.005Z,47.51
2023-02-12T18:48:29.242Z,47.42
2023-02-12T18:51:23.868Z,47.21
2023-02-12T18:54:13.642Z,47.80
2023-02-12T18:56:59.666Z,47.90
2023-02-12T18:59:45.901Z,47.59
2023-02-12T19:02:31.944Z,47.26
2023-02-12T19:05:17.846Z,47.64
2023-02-12T19:08:03.883Z,47.26
2023-02-12T19:10:49.948Z,47.27
2023-02-12T19:13:36.167Z,47.55
2023-02-12T19:16:23.808Z,47.40
2023-02-12T19:19:09.670Z,47.14
2023-02-12T19:21:55.794Z,47.72
2023-02-12T19:24:47.021Z,47.84
2023-02-12T19:27:33.572Z,47.46
2023-02-12T19:30:20.023Z,47.45
2023-02-12T19:33:06.490Z,47.36
2023-02-12T19:35:52.818Z,47.29
2023-02-12T19:38:39.056Z,47.61
2023-02-12T19:41:27.228Z,47.50
2023-02-12T19:44:17.994Z,47.40
2023-02-12T19:47:04.944Z,47.53
2023-02-12T19:49:50.950Z,47.44
2023-02-12T19:52:37.244Z,47.69
2023-02-12T19:55:23.365Z,47.33
2023-02-12T19:58:09.520Z,47.40
2023-02-12T20:00:55.826Z,47.28
2023-02-12T20:03:42.477Z,47.17
2023-02-12T20:06:31.944Z,47.57
2023-02-12T20:09:19.204Z,47.09
2023-02-12T20:12:05.616Z,47.19
2023-02-12T20:14:51.404Z,47.56
2023-02-12T20:17:37.350Z,47.73
2023-02-12T20:20:23.068Z,47.39
2023-02-12T20:23:08.928Z,48.21
2023-02-12T20:25:54.830Z,47.47
2023-02-12T20:28:44.893Z,47.54
2023-02-12T20:31:33.958Z,47.95
2023-02-12T20:34:20.788Z,47.41
2023-02-12T20:37:08.043Z,47.29
2023-02-12T20:39:54.596Z,47.30
2023-02-12T20:42:41.068Z,47.72
2023-02-12T20:45:27.277Z,47.25
2023-02-12T20:48:13.336Z,47.20
2023-02-12T20:51:06.855Z,47.28
2023-02-12T20:53:55.369Z,47.47
2023-02-12T20:56:41.240Z,47.18
2023-02-12T20:59:27.143Z,47.24
2023-02-12T21:02:13.032Z,47.46
2023-02-12T21:04:59.318Z,47.34
2023-02-12T21:07:46.175Z,47.91
2023-02-12T21:10:32.923Z,47.39
2023-02-12T21:13:19.090Z,47.38
2023-02-12T21:16:10.641Z,47.27
2023-02-12T21:18:56.846Z,46.99
2023-02-12T21:21:45.335Z,47.13
2023-02-12T21:24:31.339Z,47.22
2023-02-12T21:27:17.124Z,47.20
2023-02-12T21:30:03.225Z,47.28
2023-02-12T21:32:49.789Z,47.60
2023-02-12T21:35:36.843Z,47.13
2023-02-12T21:38:22.732Z,47.31
2023-02-12T21:41:13.071Z,47.17
2023-02-12T21:44:01.201Z,47.52
2023-02-12T21:46:47.188Z,47.48
2023-02-12T21:49:33.396Z,47.44
2023-02-12T21:52:19.149Z,47.19
2023-02-12T21:55:05.201Z,47.15
2023-02-12T21:57:51.375Z,47.15
2023-02-12T22:00:37.259Z,46.98
2023-02-12T22:03:23.027Z,47.25
2023-02-12T22:06:09.232Z,47.27
2023-02-12T22:09:00.206Z,47.41
2023-02-12T22:11:46.173Z,46.74
2023-02-12T22:14:35.164Z,47.09
2023-02-12T22:17:21.963Z,47.07
2023-02-12T22:20:08.975Z,47.51
2023-02-12T22:22:55.116Z,47.53
2023-02-12T22:25:41.042Z,47.53
2023-02-12T22:28:27.289Z,47.44
2023-02-12T22:31:19.617Z,47.02
2023-02-12T22:34:10.224Z,47.33
2023-02-12T22:36:56.436Z,47.47
2023-02-12T22:39:42.241Z,46.97
2023-02-12T22:42:28.147Z,47.38
2023-02-12T22:45:14.186Z,47.23
2023-02-12T22:48:00.022Z,47.27
2023-02-12T22:50:45.799Z,47.01
2023-02-12T22:53:31.537Z,47.43
2023-02-12T22:56:17.885Z,47.38
2023-02-12T22:59:03.805Z,47.62
2023-02-12T23:01:49.592Z,47.37
2023-02-12T23:04:36.634Z,47.55
2023-02-12T23:07:22.670Z,47.72
2023-02-12T23:10:08.805Z,47.82
2023-02-12T23:12:54.918Z,47.64
2023-02-12T23:15:40.698Z,47.32
2023-02-12T23:18:26.480Z,47.22
2023-02-12T23:21:12.447Z,47.24
2023-02-12T23:24:01.521Z,47.29
2023-02-12T23:26:47.495Z,47.38
2023-02-12T23:29:34.279Z,47.08
2023-02-12T23:32:20.277Z,47.47
2023-02-12T23:35:06.346Z,47.51
2023-02-12T23:37:52.658Z,47.45
2023-02-12T23:40:39.223Z,47.67
2023-02-12T23:43:25.042Z,47.50
2023-02-12T23:46:11.178Z,47.36
2023-02-12T23:48:57.305Z,47.41
2023-02-12T23:51:43.125Z,47.45
2023-02-12T23:54:29.095Z,47.16
2023-02-12T23:57:14.853Z,47.15
